Terminal Aerodrome Forecast
Issued by NWS Charleston, WV

Current Version | Previous Version | Graphics & Text | Print | Product List | Glossary On
Versions: 1 2 3 4 5 6 7 8 9 10 11 12 13 14 15 16 17 18 19 20 21 22 23 24 25 26 27 28
999
FTUS41 KRLX 281211 AAA
TAFCRW
TAF AMD
KCRW 281211Z 2812/2912 00000KT 4SM BR SCT001
      TEMPO 2812/2813 1/2SM FG
     FM281300 12003KT P6SM FEW050
     FM281600 17005KT P6SM FEW100=

USA.gov is the U.S. government's official web portal to all federal, state and local government web resources and services.